Time;durP1;ratioP1;P1;durP2;ratioP2;P2;SDS_P1;SDS_P2;PMS_P1;PMS_P2;Temp;Humidity;BMP_temperature;BMP_pressure;BME280_temperature;BME280_humidity;BME280_pressure;Samples;Min_cycle;Max_cycle;Signal;HPM_P1;HPM_P2
2022/01/14 00:00:57;;;;;;;19.83;12.77;;;6.20;99.90;;;;;;2111339;67;20302;-78
2022/01/14 00:03:40;;;;;;;20.60;12.30;;;6.20;99.90;;;;;;2109595;67;20830;-77
2022/01/14 00:06:27;;;;;;;27.52;12.20;;;6.20;99.90;;;;;;2099925;68;20234;-77
2022/01/14 00:09:11;;;;;;;28.30;13.85;;;6.20;99.90;;;;;;2104463;68;20751;-78
2022/01/14 00:11:57;;;;;;;23.13;12.00;;;6.20;99.90;;;;;;2111710;67;20282;-77
2022/01/14 00:14:42;;;;;;;20.17;12.27;;;6.20;99.90;;;;;;2121008;67;20184;-79
2022/01/14 00:17:27;;;;;;;17.08;11.30;;;6.20;99.90;;;;;;2119888;67;20348;-76
2022/01/14 00:20:11;;;;;;;23.38;12.18;;;6.20;99.90;;;;;;2118312;67;20249;-78
2022/01/14 00:22:52;;;;;;;20.75;12.13;;;6.60;99.90;;;;;;2112028;67;20296;-78
2022/01/14 00:34:18;;;;;;;21.75;11.98;;;6.20;99.90;;;;;;2130260;67;20172;-78
2022/01/14 00:37:00;;;;;;;21.13;12.30;;;6.20;99.90;;;;;;2123074;67;20177;-77
2022/01/14 00:39:46;;;;;;;23.92;10.30;;;6.20;99.90;;;;;;2132197;67;20206;-80
2022/01/14 00:42:31;;;;;;;27.58;13.93;;;6.20;99.90;;;;;;2139699;67;20346;-77
2022/01/14 00:45:13;;;;;;;29.02;14.50;;;5.90;99.90;;;;;;2130386;67;20220;-76
2022/01/14 00:47:55;;;;;;;22.67;11.80;;;6.20;99.90;;;;;;2132273;67;20425;-77
2022/01/14 00:50:40;;;;;;;14.98;9.98;;;6.20;99.90;;;;;;2128749;67;20259;-75
2022/01/14 00:53:22;;;;;;;23.83;12.60;;;6.20;99.90;;;;;;2125575;67;20468;-76
2022/01/14 00:56:20;;;;;;;23.70;12.23;;;6.20;99.90;;;;;;2113156;67;20200;-76
2022/01/14 00:59:15;;;;;;;22.45;12.52;;;6.10;99.90;;;;;;2127868;67;20730;-76
2022/01/14 01:02:00;;;;;;;19.70;12.23;;;6.00;99.90;;;;;;2118259;67;20366;-76
2022/01/14 01:04:42;;;;;;;22.67;13.52;;;5.90;99.90;;;;;;2126323;67;20217;-77
2022/01/14 01:07:24;;;;;;;23.13;13.05;;;5.80;99.90;;;;;;2131766;67;20198;-78
2022/01/14 01:10:13;;;;;;;23.40;11.88;;;5.80;99.90;;;;;;2130489;67;20343;-77
2022/01/14 01:13:01;;;;;;;29.95;14.68;;;5.70;99.90;;;;;;2119141;67;20259;-77
2022/01/14 01:15:43;;;;;;;23.88;13.40;;;5.70;99.90;;;;;;2126199;67;20176;-76
2022/01/14 01:18:28;;;;;;;26.92;13.77;;;5.70;99.90;;;;;;2118863;67;20322;-77
2022/01/14 01:21:10;;;;;;;30.58;13.35;;;5.70;99.90;;;;;;2125466;67;20282;-78
2022/01/14 01:23:52;;;;;;;23.80;11.32;;;5.80;99.90;;;;;;2126735;67;20180;-76
2022/01/14 01:26:38;;;;;;;30.38;13.65;;;5.80;99.90;;;;;;2133886;67;20671;-78
2022/01/14 01:32:27;;;;;;;29.40;14.75;;;5.80;99.90;;;;;;2134287;67;20823;-76
2022/01/14 01:35:09;;;;;;;26.85;13.57;;;6.00;99.90;;;;;;2148342;66;20193;-76
2022/01/14 01:37:52;;;;;;;24.42;14.68;;;6.00;99.90;;;;;;2145960;66;20281;-77
2022/01/14 01:40:37;;;;;;;25.25;14.02;;;6.00;99.90;;;;;;2136771;67;20350;-77
2022/01/14 01:43:21;;;;;;;30.13;14.32;;;6.10;99.90;;;;;;2132854;67;20757;-77
2022/01/14 01:46:03;;;;;;;19.00;13.30;;;6.10;99.90;;;;;;2140292;67;20175;-79
2022/01/14 01:48:46;;;;;;;25.65;14.70;;;6.20;99.90;;;;;;2154849;66;20251;-77
2022/01/14 01:51:30;;;;;;;30.08;15.23;;;6.20;99.90;;;;;;2161257;66;20338;-77
2022/01/14 01:54:15;;;;;;;24.33;15.00;;;6.20;99.90;;;;;;2157889;66;20178;-76
2022/01/14 01:56:57;;;;;;;26.85;16.15;;;6.20;99.90;;;;;;2155027;66;20161;-77
2022/01/14 01:59:40;;;;;;;28.95;15.57;;;6.20;99.90;;;;;;2161521;66;20319;-77
2022/01/14 02:02:27;;;;;;;26.60;14.23;;;6.30;99.90;;;;;;2161533;66;20338;-75
2022/01/14 02:05:12;;;;;;;27.25;15.32;;;6.20;99.90;;;;;;2142987;66;20703;-77
2022/01/14 02:07:54;;;;;;;26.35;14.68;;;6.30;99.90;;;;;;2162997;66;20211;-78
2022/01/14 02:10:38;;;;;;;25.73;14.80;;;6.30;99.90;;;;;;2162274;66;20351;-76
2022/01/14 02:13:19;;;;;;;22.27;13.48;;;6.30;99.90;;;;;;2146992;66;20300;-76
2022/01/14 02:24:59;;;;;;;29.48;14.80;;;6.40;99.90;;;;;;2147114;66;20871;-76
2022/01/14 02:27:41;;;;;;;21.85;12.68;;;6.30;99.90;;;;;;2152594;66;20665;-77
2022/01/14 02:30:27;;;;;;;22.20;13.45;;;6.40;99.90;;;;;;2147191;66;20199;-77
2022/01/14 02:33:10;;;;;;;23.33;13.25;;;6.40;99.90;;;;;;2147315;66;20420;-77
2022/01/14 02:35:51;;;;;;;20.38;13.32;;;6.40;99.90;;;;;;2153665;66;20177;-77
2022/01/14 02:38:33;;;;;;;21.30;13.45;;;6.40;99.90;;;;;;2160462;66;20199;-77
2022/01/14 02:41:15;;;;;;;25.38;14.55;;;6.40;99.90;;;;;;2154501;66;20760;-77
2022/01/14 02:44:27;;;;;;;25.65;14.82;;;6.40;99.90;;;;;;2161214;66;20442;-78
2022/01/14 02:47:10;;;;;;;26.13;14.75;;;6.30;99.90;;;;;;2148461;66;20299;-78
2022/01/14 02:49:53;;;;;;;24.48;13.40;;;6.70;99.90;;;;;;2136354;67;20321;-76
2022/01/14 02:52:55;;;;;;;30.83;14.85;;;6.40;99.90;;;;;;2138633;66;20386;-76
2022/01/14 02:55:43;;;;;;;28.73;15.05;;;6.40;99.90;;;;;;2143039;66;20340;-77
2022/01/14 02:58:30;;;;;;;27.58;14.95;;;6.40;99.90;;;;;;2142591;66;20170;-76
2022/01/14 03:01:15;;;;;;;27.02;15.20;;;6.40;99.90;;;;;;2146746;66;20170;-76
2022/01/14 03:04:00;;;;;;;23.92;14.02;;;6.40;99.90;;;;;;2146829;66;20169;-76
2022/01/14 03:06:42;;;;;;;27.48;14.23;;;6.40;99.90;;;;;;2141192;66;20187;-77
2022/01/14 03:09:26;;;;;;;20.75;14.32;;;6.40;99.90;;;;;;2147306;66;20291;-77
2022/01/14 03:12:12;;;;;;;22.67;14.30;;;6.40;99.90;;;;;;2133628;67;20358;-76
2022/01/14 03:14:59;;;;;;;25.50;15.20;;;6.40;99.90;;;;;;2114681;67;20229;-77
2022/01/14 03:17:41;;;;;;;24.00;14.57;;;6.50;99.90;;;;;;2118052;67;20345;-77
2022/01/14 03:20:48;;;;;;;29.73;15.43;;;6.50;99.90;;;;;;2126269;67;20255;-77
2022/01/14 03:23:41;;;;;;;26.40;15.77;;;6.50;99.90;;;;;;2129553;67;20231;-77
2022/01/14 03:26:24;;;;;;;23.88;14.60;;;6.50;99.90;;;;;;2141594;66;20195;-77
2022/01/14 03:29:06;;;;;;;30.67;16.13;;;6.80;99.90;;;;;;2139096;66;20324;-77
2022/01/14 03:31:48;;;;;;;26.52;16.13;;;6.50;99.90;;;;;;2125644;67;20224;-77
2022/01/14 03:34:30;;;;;;;28.02;15.65;;;6.50;99.90;;;;;;2132635;67;20183;-78
2022/01/14 03:37:12;;;;;;;28.88;17.50;;;6.50;99.90;;;;;;2132445;67;20380;-78
2022/01/14 03:39:54;;;;;;;27.77;17.48;;;6.50;99.90;;;;;;2132629;67;20253;-77
2022/01/14 03:42:36;;;;;;;28.88;17.27;;;6.50;99.90;;;;;;2128767;66;20296;-77
2022/01/14 03:45:17;;;;;;;28.15;19.05;;;6.50;99.90;;;;;;2125862;67;20365;-77
2022/01/14 03:47:59;;;;;;;29.35;16.27;;;6.60;99.90;;;;;;2145994;66;20278;-77
2022/01/14 03:50:42;;;;;;;25.27;15.40;;;6.70;99.90;;;;;;2129987;67;20331;-77
2022/01/14 03:53:27;;;;;;;28.65;16.70;;;6.60;99.90;;;;;;2129029;67;20273;-78
2022/01/14 03:56:08;;;;;;;27.90;15.35;;;6.60;99.90;;;;;;2140137;67;20336;-77
2022/01/14 03:58:50;;;;;;;23.48;15.30;;;6.60;99.90;;;;;;2140828;67;20174;-76
2022/01/14 04:01:33;;;;;;;25.73;15.88;;;6.60;99.90;;;;;;2149054;66;20428;-77
2022/01/14 04:04:20;;;;;;;27.73;16.45;;;6.60;99.90;;;;;;2157248;66;20673;-77
2022/01/14 04:07:02;;;;;;;29.30;15.55;;;6.60;99.90;;;;;;2161165;66;20282;-78
2022/01/14 04:09:44;;;;;;;26.38;14.80;;;6.60;99.90;;;;;;2141747;67;20335;-77
2022/01/14 04:12:43;;;;;;;23.10;15.02;;;6.60;99.90;;;;;;2145715;66;20303;-78
2022/01/14 04:15:37;;;;;;;29.13;15.15;;;6.90;99.90;;;;;;2151091;66;20262;-76
2022/01/14 04:18:20;;;;;;;26.90;14.73;;;6.60;99.90;;;;;;2154008;66;20359;-76
2022/01/14 04:21:02;;;;;;;26.63;16.17;;;6.90;99.90;;;;;;2165194;65;20686;-78
2022/01/14 04:23:45;;;;;;;26.27;16.63;;;6.60;99.90;;;;;;2161789;65;20389;-78
2022/01/14 04:26:27;;;;;;;27.52;16.00;;;6.60;99.90;;;;;;2161252;66;20265;-78
2022/01/14 04:29:11;;;;;;;28.35;17.15;;;6.50;99.90;;;;;;2146891;66;20347;-77
2022/01/14 04:32:00;;;;;;;24.48;15.35;;;6.30;99.90;;;;;;2137942;67;20297;-77
2022/01/14 04:34:44;;;;;;;31.08;17.42;;;6.20;99.90;;;;;;2127011;67;20226;-78
2022/01/14 04:37:26;;;;;;;32.28;16.55;;;6.10;99.90;;;;;;2140040;66;20166;-77
2022/01/14 04:40:08;;;;;;;29.55;15.85;;;6.00;99.90;;;;;;2147563;66;20254;-77
2022/01/14 04:42:52;;;;;;;24.48;15.45;;;6.00;99.90;;;;;;2131634;67;20224;-78
2022/01/14 04:48:18;;;;;;;26.10;15.52;;;6.00;99.90;;;;;;2114213;67;20206;-76
2022/01/14 04:51:02;;;;;;;23.65;15.38;;;6.10;99.90;;;;;;2118524;67;20180;-77
2022/01/14 04:53:45;;;;;;;27.90;15.75;;;6.00;99.90;;;;;;2104928;68;20178;-78
2022/01/14 04:56:33;;;;;;;26.55;15.25;;;6.00;99.90;;;;;;2105681;67;20383;-77
2022/01/14 04:59:15;;;;;;;31.90;16.40;;;6.00;99.90;;;;;;2114145;67;20330;-76
2022/01/14 05:01:58;;;;;;;29.60;17.08;;;6.00;99.90;;;;;;2118769;67;20818;-77
2022/01/14 05:04:41;;;;;;;26.27;15.48;;;6.00;99.90;;;;;;2106999;67;20189;-77
2022/01/14 05:07:26;;;;;;;28.25;14.95;;;6.00;99.90;;;;;;2105658;67;20685;-77
2022/01/14 05:10:20;;;;;;;25.73;15.38;;;6.10;99.90;;;;;;2126557;67;20239;-77
2022/01/14 05:13:03;;;;;;;26.58;16.05;;;6.10;99.90;;;;;;2126588;67;21206;-76
2022/01/14 05:15:49;;;;;;;29.50;15.77;;;6.10;99.90;;;;;;2120086;67;20192;-77
2022/01/14 05:18:37;;;;;;;26.08;15.88;;;6.10;99.90;;;;;;2116838;67;20294;-77
2022/01/14 05:21:20;;;;;;;29.10;15.00;;;6.10;99.90;;;;;;2110848;67;20221;-77
2022/01/14 05:24:01;;;;;;;21.95;15.45;;;6.10;99.90;;;;;;2125364;67;20217;-77
2022/01/14 05:26:42;;;;;;;27.40;16.02;;;6.10;99.90;;;;;;2121956;67;20449;-76
2022/01/14 05:29:26;;;;;;;26.90;16.33;;;6.10;99.90;;;;;;2120011;67;20324;-76
2022/01/14 05:32:15;;;;;;;26.10;16.10;;;6.10;99.90;;;;;;2135055;66;20190;-77
2022/01/14 05:34:59;;;;;;;24.35;15.52;;;6.10;99.90;;;;;;2148011;66;20323;-76
2022/01/14 05:37:42;;;;;;;28.15;16.92;;;6.30;99.90;;;;;;2147865;66;20324;-77
2022/01/14 05:40:27;;;;;;;33.83;17.67;;;6.20;99.90;;;;;;2147570;66;20215;-77
2022/01/14 05:43:21;;;;;;;28.77;15.65;;;6.20;99.90;;;;;;2138229;66;20429;-76
2022/01/14 05:46:04;;;;;;;27.38;17.05;;;6.20;99.90;;;;;;2129949;66;20187;-78
2022/01/14 05:48:47;;;;;;;31.50;17.15;;;6.30;99.90;;;;;;2130357;67;20257;-77
2022/01/14 05:51:32;;;;;;;27.02;16.88;;;6.30;99.90;;;;;;2136700;67;20335;-77
2022/01/14 05:54:14;;;;;;;29.10;17.52;;;6.30;99.90;;;;;;2136369;67;20263;-76
2022/01/14 05:56:56;;;;;;;27.58;17.52;;;6.30;99.90;;;;;;2144151;66;20207;-77
2022/01/14 05:59:38;;;;;;;24.88;17.13;;;6.40;99.90;;;;;;2133195;67;20320;-77
2022/01/14 06:02:21;;;;;;;28.30;14.80;;;6.40;99.90;;;;;;2126487;67;20306;-78
2022/01/14 06:05:03;;;;;;;23.92;15.00;;;6.70;99.90;;;;;;2126258;67;20227;-77
2022/01/14 06:07:45;;;;;;;26.17;16.80;;;6.40;99.90;;;;;;2139894;67;20203;-77
2022/01/14 06:10:27;;;;;;;23.75;15.70;;;6.40;99.90;;;;;;2146344;67;20206;-77
2022/01/14 06:13:10;;;;;;;28.05;15.73;;;6.40;99.90;;;;;;2141821;67;20312;-78
2022/01/14 06:15:55;;;;;;;27.23;16.42;;;6.40;99.90;;;;;;2158288;66;20232;-76
2022/01/14 06:18:37;;;;;;;28.10;17.50;;;6.40;99.90;;;;;;2154342;66;20418;-76
2022/01/14 06:21:19;;;;;;;21.95;15.70;;;6.40;99.90;;;;;;2153493;66;20355;-75
2022/01/14 06:24:01;;;;;;;24.92;16.00;;;6.40;99.90;;;;;;2135931;67;20896;-77
2022/01/14 06:26:42;;;;;;;24.02;16.17;;;6.40;99.90;;;;;;2126031;67;21365;-77
2022/01/14 06:29:24;;;;;;;27.40;15.25;;;6.40;99.90;;;;;;2119184;67;20250;-76
2022/01/14 06:32:06;;;;;;;24.17;15.10;;;6.40;99.90;;;;;;2133634;67;20188;-77
2022/01/14 06:34:50;;;;;;;23.60;14.85;;;6.40;99.90;;;;;;2106587;67;20263;-76
2022/01/14 06:37:34;;;;;;;25.10;15.70;;;6.40;99.90;;;;;;2124090;67;20350;-76
2022/01/14 06:40:17;;;;;;;25.70;14.80;;;6.40;99.90;;;;;;2125281;67;20250;-76
2022/01/14 06:43:00;;;;;;;27.77;14.88;;;6.40;99.90;;;;;;2126143;67;20239;-77
2022/01/14 06:45:44;;;;;;;25.00;15.18;;;6.40;99.90;;;;;;2119307;67;20599;-76
2022/01/14 06:48:26;;;;;;;24.00;14.90;;;6.40;99.90;;;;;;2116066;67;20262;-76
2022/01/14 06:51:14;;;;;;;22.88;13.05;;;6.40;99.90;;;;;;2115615;67;20259;-76
2022/01/14 06:53:58;;;;;;;25.63;14.52;;;6.40;99.90;;;;;;2107043;67;20306;-76
2022/01/14 06:56:42;;;;;;;23.95;13.57;;;6.40;99.90;;;;;;2097717;68;20743;-76
2022/01/14 06:59:24;;;;;;;23.67;14.00;;;6.40;99.90;;;;;;2093509;68;20703;-76
2022/01/14 07:02:06;;;;;;;29.83;13.43;;;6.50;99.90;;;;;;2109571;67;20210;-76
2022/01/14 07:04:47;;;;;;;20.42;13.10;;;6.40;99.90;;;;;;2109377;67;20801;-77
2022/01/14 07:07:29;;;;;;;26.98;13.85;;;6.40;99.90;;;;;;2117441;67;20439;-77
2022/01/14 07:10:11;;;;;;;23.30;13.07;;;6.50;99.90;;;;;;2110305;67;20338;-77
2022/01/14 07:12:53;;;;;;;26.13;13.10;;;6.50;99.90;;;;;;2119420;67;20390;-76
2022/01/14 07:15:35;;;;;;;27.02;13.20;;;6.50;99.90;;;;;;2120430;67;20238;-79
2022/01/14 07:18:17;;;;;;;23.15;11.27;;;6.50;99.90;;;;;;2124706;67;20862;-78
2022/01/14 07:20:59;;;;;;;21.08;11.65;;;6.50;99.90;;;;;;2119619;67;20481;-77
2022/01/14 07:23:41;;;;;;;16.00;11.20;;;6.50;99.90;;;;;;2117843;67;20856;-76
2022/01/14 07:26:24;;;;;;;19.02;11.57;;;6.50;99.90;;;;;;2117697;67;20299;-75
2022/01/14 07:29:05;;;;;;;14.88;10.63;;;6.50;99.90;;;;;;2117958;67;20335;-78
2022/01/14 07:31:48;;;;;;;19.02;11.43;;;6.50;99.90;;;;;;2106433;67;20360;-78
2022/01/14 07:34:31;;;;;;;16.30;9.75;;;6.50;99.90;;;;;;2094328;68;20717;-77
2022/01/14 07:37:12;;;;;;;16.50;9.88;;;6.50;99.90;;;;;;2100645;68;20314;-77
2022/01/14 07:39:54;;;;;;;17.00;9.45;;;6.50;99.90;;;;;;2120129;67;20329;-77
2022/01/14 07:42:36;;;;;;;13.55;9.82;;;6.50;99.90;;;;;;2125831;67;20724;-76
2022/01/14 07:45:20;;;;;;;21.25;10.07;;;6.60;99.90;;;;;;2125982;67;20260;-77
2022/01/14 07:48:02;;;;;;;17.83;10.93;;;6.80;99.90;;;;;;2114051;67;20461;-78
2022/01/14 07:50:45;;;;;;;19.42;10.05;;;6.60;99.90;;;;;;2124722;67;20330;-76
2022/01/14 07:53:27;;;;;;;14.73;9.85;;;6.60;99.90;;;;;;2103260;67;20706;-75
2022/01/14 07:56:13;;;;;;;16.15;9.77;;;6.60;99.90;;;;;;2108463;67;20900;-76
2022/01/14 07:58:57;;;;;;;17.50;8.68;;;6.60;99.90;;;;;;2118224;67;20337;-76
2022/01/14 08:01:47;;;;;;;19.38;9.88;;;6.60;99.90;;;;;;2097366;67;20293;-76
2022/01/14 08:04:34;;;;;;;16.83;8.85;;;6.60;99.90;;;;;;2110607;67;20330;-77
2022/01/14 08:07:22;;;;;;;20.33;8.68;;;6.60;99.90;;;;;;2125224;67;20363;-76
2022/01/14 08:10:06;;;;;;;20.45;8.98;;;6.60;99.90;;;;;;2124758;67;20228;-77
2022/01/14 08:12:48;;;;;;;19.73;9.98;;;6.60;99.90;;;;;;2123472;67;20362;-77
2022/01/14 08:15:36;;;;;;;17.52;8.30;;;6.70;99.90;;;;;;2110195;67;20181;-76
2022/01/14 08:18:19;;;;;;;14.95;7.75;;;6.60;99.90;;;;;;2113279;67;20612;-75
2022/01/14 08:21:00;;;;;;;17.10;8.05;;;6.60;99.90;;;;;;2124768;67;20358;-76
2022/01/14 08:23:42;;;;;;;14.57;8.15;;;6.70;99.90;;;;;;2115021;67;20191;-75
2022/01/14 08:26:24;;;;;;;15.77;8.02;;;6.70;99.90;;;;;;2131212;67;20273;-78
2022/01/14 08:29:06;;;;;;;15.73;8.38;;;6.70;99.90;;;;;;2122056;67;20270;-77
2022/01/14 08:31:51;;;;;;;18.63;8.60;;;6.70;99.90;;;;;;2122283;67;20305;-77
2022/01/14 08:34:33;;;;;;;17.53;7.87;;;6.70;99.90;;;;;;2117355;67;20739;-76
2022/01/14 08:37:15;;;;;;;13.95;7.18;;;6.70;99.90;;;;;;2105597;67;20222;-76
2022/01/14 08:40:00;;;;;;;20.13;8.43;;;6.70;99.90;;;;;;2106558;67;20354;-78
2022/01/14 08:42:45;;;;;;;26.60;9.55;;;6.80;99.90;;;;;;2109906;67;20339;-79
2022/01/14 08:45:27;;;;;;;13.15;7.18;;;6.80;99.90;;;;;;2112226;67;20318;-76
2022/01/14 08:48:09;;;;;;;20.35;8.02;;;6.90;99.90;;;;;;2112348;67;20835;-76
2022/01/14 08:50:52;;;;;;;16.63;7.65;;;6.90;99.90;;;;;;2103932;67;20198;-74
2022/01/14 08:53:39;;;;;;;21.83;7.95;;;7.10;99.90;;;;;;2112816;67;20262;-75
2022/01/14 08:56:22;;;;;;;13.25;7.30;;;6.80;99.90;;;;;;2106947;67;20303;-75
2022/01/14 08:59:07;;;;;;;14.98;7.25;;;7.30;99.90;;;;;;2102680;68;20294;-75
2022/01/14 09:02:06;;;;;;;27.63;9.90;;;7.10;99.90;;;;;;2096288;68;20396;-76
2022/01/14 09:04:51;;;;;;;16.73;7.43;;;7.10;99.90;;;;;;2094420;68;20195;-74
2022/01/14 09:07:33;;;;;;;18.02;6.25;;;7.10;99.90;;;;;;2101700;67;20351;-75
2022/01/14 09:10:15;;;;;;;22.08;7.07;;;7.20;99.90;;;;;;2124016;67;20202;-76
2022/01/14 09:12:57;;;;;;;12.30;6.25;;;7.20;99.90;;;;;;2135529;67;20202;-76
2022/01/14 09:15:40;;;;;;;15.52;6.15;;;7.20;99.90;;;;;;2141768;67;20230;-75
2022/01/14 09:18:22;;;;;;;15.63;5.72;;;7.20;99.90;;;;;;2141279;66;20764;-77
2022/01/14 09:21:05;;;;;;;12.98;6.43;;;7.20;99.90;;;;;;2140265;66;20430;-75
2022/01/14 09:24:03;;;;;;;9.00;5.15;;;7.20;99.90;;;;;;2147459;66;20641;-77
2022/01/14 09:26:45;;;;;;;10.55;5.45;;;7.30;99.90;;;;;;2147630;66;20178;-76
2022/01/14 09:29:26;;;;;;;19.42;6.35;;;8.30;99.90;;;;;;2145819;66;20222;-75
2022/01/14 09:32:11;;;;;;;9.52;5.32;;;7.30;99.90;;;;;;2132404;67;21011;-76
2022/01/14 09:34:52;;;;;;;11.63;4.40;;;7.40;99.90;;;;;;2131411;67;20346;-77
2022/01/14 09:37:34;;;;;;;13.73;4.85;;;7.50;99.90;;;;;;2138847;67;20198;-77
2022/01/14 09:40:16;;;;;;;8.40;4.43;;;7.50;99.90;;;;;;2111377;67;20358;-76
2022/01/14 09:43:00;;;;;;;13.38;4.47;;;7.50;99.90;;;;;;2118115;67;20759;-77
2022/01/14 09:45:42;;;;;;;13.00;4.80;;;7.60;99.90;;;;;;2118070;67;20336;-77
2022/01/14 09:48:24;;;;;;;13.52;5.10;;;7.60;99.90;;;;;;2118412;67;20396;-77
2022/01/14 09:51:06;;;;;;;11.73;4.68;;;7.60;99.90;;;;;;2124171;67;20336;-76
2022/01/14 09:53:48;;;;;;;26.33;6.78;;;7.80;99.90;;;;;;2104276;67;20274;-76
2022/01/14 09:56:31;;;;;;;9.80;5.10;;;7.60;99.90;;;;;;2101983;68;20841;-75
2022/01/14 09:59:18;;;;;;;12.90;4.13;;;7.60;99.90;;;;;;2090817;68;20183;-77
2022/01/14 10:02:03;;;;;;;8.48;4.35;;;8.40;99.90;;;;;;2099499;68;20198;-76
2022/01/14 10:04:45;;;;;;;11.55;4.97;;;7.70;99.90;;;;;;2098524;68;20243;-77
2022/01/14 10:07:27;;;;;;;14.55;4.80;;;7.80;99.90;;;;;;2084539;68;20381;-76
2022/01/14 10:10:23;;;;;;;12.63;4.40;;;7.80;99.90;;;;;;2090098;68;20418;-77
2022/01/14 10:13:17;;;;;;;11.55;4.47;;;7.80;99.90;;;;;;2090244;68;20270;-76
2022/01/14 10:16:06;;;;;;;10.52;4.35;;;7.80;99.90;;;;;;2090240;68;20382;-77
2022/01/14 10:18:52;;;;;;;14.10;4.50;;;7.70;99.90;;;;;;2102640;67;20264;-76
2022/01/14 10:21:43;;;;;;;13.45;3.65;;;7.80;99.90;;;;;;2102580;68;20267;-80
2022/01/14 10:24:29;;;;;;;9.85;5.15;;;7.80;99.90;;;;;;2101704;67;21160;-77
2022/01/14 10:27:13;;;;;;;11.63;4.25;;;8.10;99.90;;;;;;2117717;67;20375;-76
2022/01/14 10:30:12;;;;;;;13.27;4.28;;;7.80;99.90;;;;;;2132604;67;20239;-76
2022/01/14 10:33:10;;;;;;;8.13;3.28;;;7.80;99.90;;;;;;2134722;67;20294;-76
2022/01/14 10:35:58;;;;;;;11.35;3.35;;;7.80;99.90;;;;;;2130726;67;20326;-78
2022/01/14 10:38:46;;;;;;;10.60;3.30;;;7.80;99.90;;;;;;2138674;66;20166;-76
2022/01/14 10:41:34;;;;;;;9.07;3.30;;;7.80;99.90;;;;;;2136088;66;20220;-80
2022/01/14 10:44:30;;;;;;;11.23;3.80;;;7.80;99.90;;;;;;2138667;66;20855;-76
2022/01/14 10:47:30;;;;;;;11.70;3.47;;;7.80;99.90;;;;;;2146937;66;20382;-75
2022/01/14 10:50:15;;;;;;;12.35;3.65;;;7.80;99.90;;;;;;2151174;66;20322;-74
2022/01/14 10:52:59;;;;;;;16.02;3.63;;;7.80;99.90;;;;;;2138413;66;20207;-75
2022/01/14 10:55:44;;;;;;;10.82;3.60;;;7.90;99.90;;;;;;2127248;67;20685;-76
2022/01/14 10:58:28;;;;;;;9.68;3.78;;;7.90;99.90;;;;;;2134834;67;20235;-76
2022/01/14 11:01:25;;;;;;;12.20;4.20;;;7.90;99.90;;;;;;2145852;66;20327;-77
2022/01/14 11:04:11;;;;;;;20.83;5.82;;;8.00;99.90;;;;;;2132277;66;20298;-75
2022/01/14 11:06:54;;;;;;;12.20;4.50;;;8.00;99.90;;;;;;2121370;67;20225;-75
2022/01/14 11:09:44;;;;;;;14.38;4.68;;;7.90;99.90;;;;;;2108764;67;20771;-76
2022/01/14 11:12:29;;;;;;;18.25;7.57;;;8.00;99.90;;;;;;2105765;67;21205;-76
2022/01/14 11:15:12;;;;;;;11.20;5.25;;;8.00;99.90;;;;;;2112939;67;20406;-78
2022/01/14 11:17:55;;;;;;;9.13;4.63;;;8.00;99.90;;;;;;2111525;67;20237;-76
2022/01/14 11:23:14;;;;;;;12.30;4.45;;;8.00;99.90;;;;;;2108346;67;20420;-77
2022/01/14 11:23:41;;;;;;;10.98;3.70;;;8.00;99.90;;;;;;2105774;67;20248;-77
2022/01/14 11:26:27;;;;;;;29.10;7.13;;;8.00;99.90;;;;;;2113440;67;20351;-80
2022/01/14 11:29:12;;;;;;;12.00;4.20;;;8.00;99.90;;;;;;2130367;67;20367;-78
2022/01/14 11:31:59;;;;;;;15.27;5.10;;;8.00;99.90;;;;;;2130304;67;20231;-78
2022/01/14 11:34:50;;;;;;;13.82;4.55;;;8.10;99.90;;;;;;2125165;67;20357;-78
2022/01/14 11:37:41;;;;;;;15.32;5.60;;;8.10;99.90;;;;;;2124055;67;20568;-80
2022/01/14 11:40:49;;;;;;;14.80;4.97;;;8.10;99.90;;;;;;2126177;67;20875;-79
2022/01/14 11:43:59;;;;;;;17.63;5.82;;;8.10;99.90;;;;;;2123763;67;20206;-79
2022/01/14 11:46:46;;;;;;;16.42;4.80;;;8.00;99.90;;;;;;2137075;66;20198;-80
2022/01/14 11:49:34;;;;;;;12.93;5.18;;;8.10;99.90;;;;;;2137888;67;20674;-78
2022/01/14 11:52:38;;;;;;;11.00;4.57;;;8.10;99.90;;;;;;2130022;67;20216;-78
2022/01/14 11:55:23;;;;;;;21.42;5.38;;;8.10;99.90;;;;;;2116842;67;20244;-78
2022/01/14 11:58:21;;;;;;;13.18;5.63;;;8.10;99.90;;;;;;2115532;67;20343;-77
2022/01/14 12:00:58;;;;;;;9.25;5.43;;;8.20;99.90;;;;;;2115616;67;20239;-79
2022/01/14 12:03:51;;;;;;;16.58;5.72;;;8.30;99.90;;;;;;2123281;67;20611;-79
2022/01/14 12:06:51;;;;;;;8.82;4.45;;;8.20;99.90;;;;;;2125286;67;20392;-77
2022/01/14 12:09:33;;;;;;;15.35;4.57;;;8.20;99.90;;;;;;2124565;67;20217;-77
2022/01/14 12:12:29;;;;;;;13.25;6.00;;;8.20;99.90;;;;;;2141562;66;20282;-76
2022/01/14 12:15:56;;;;;;;15.67;6.03;;;8.20;99.90;;;;;;2164733;65;20301;-77
2022/01/14 12:18:56;;;;;;;17.65;6.85;;;8.30;99.90;;;;;;2146810;66;20360;-77
2022/01/14 12:21:44;;;;;;;14.60;4.90;;;8.10;99.90;;;;;;2153906;66;20232;-77
2022/01/14 12:24:30;;;;;;;13.77;4.72;;;9.10;99.90;;;;;;2176356;65;20416;-79
2022/01/14 12:27:26;;;;;;;13.10;5.40;;;8.20;99.90;;;;;;2174128;65;20188;-78
2022/01/14 12:30:14;;;;;;;17.75;4.55;;;8.20;99.90;;;;;;2174012;65;20348;-78
2022/01/14 12:32:58;;;;;;;16.17;5.15;;;8.80;99.90;;;;;;2174107;65;20762;-81
2022/01/14 12:35:35;;;;;;;21.50;4.95;;;8.20;99.90;;;;;;2173533;65;20200;-79
2022/01/14 12:38:14;;;;;;;16.00;5.38;;;7.50;99.90;;;;;;2173556;65;20352;-80
2022/01/14 12:40:51;;;;;;;13.82;6.15;;;8.50;99.90;;;;;;2173945;65;20226;-80
2022/01/14 12:43:34;;;;;;;14.60;4.88;;;8.20;99.90;;;;;;2154530;66;20327;-85
2022/01/14 12:49:27;;;;;;;19.05;5.93;;;8.20;99.90;;;;;;2152760;66;20747;-78
2022/01/14 12:52:15;;;;;;;22.25;5.90;;;8.10;99.90;;;;;;2151695;66;20199;-78
2022/01/14 12:55:28;;;;;;;19.55;5.05;;;8.20;99.90;;;;;;2153829;66;20192;-81
2022/01/14 13:01:51;;;;;;;12.93;5.50;;;8.10;99.90;;;;;;2143630;66;20220;-78
2022/01/14 13:04:34;;;;;;;30.33;7.53;;;8.20;99.90;;;;;;2144076;66;20459;-78
2022/01/14 13:07:24;;;;;;;19.00;6.13;;;8.10;99.90;;;;;;2129622;67;20672;-77
2022/01/14 13:10:09;;;;;;;24.60;5.70;;;8.10;99.90;;;;;;2135571;66;20757;-79
2022/01/14 13:12:50;;;;;;;13.52;5.68;;;8.10;99.90;;;;;;2121202;67;20660;-76
2022/01/14 13:15:34;;;;;;;16.00;5.43;;;8.10;99.90;;;;;;2134643;67;20262;-79
2022/01/14 13:18:24;;;;;;;18.95;5.90;;;8.10;99.90;;;;;;2144648;66;20426;-77
2022/01/14 13:21:08;;;;;;;21.13;5.78;;;8.10;99.90;;;;;;2111948;67;20691;-77
2022/01/14 13:23:52;;;;;;;14.50;5.95;;;8.10;99.90;;;;;;2116584;67;20710;-77
2022/01/14 13:26:35;;;;;;;22.17;6.63;;;8.10;99.90;;;;;;2100136;67;20250;-78
2022/01/14 13:29:17;;;;;;;17.85;5.93;;;8.40;99.90;;;;;;2107553;67;20213;-80
2022/01/14 13:32:03;;;;;;;17.63;6.07;;;8.50;99.90;;;;;;2119089;67;20390;-81
2022/01/14 13:34:48;;;;;;;23.52;7.45;;;8.10;99.90;;;;;;2129421;67;20479;-76
2022/01/14 13:37:31;;;;;;;16.83;6.80;;;8.10;99.90;;;;;;2111964;67;20363;-76
2022/01/14 13:40:27;;;;;;;20.30;6.30;;;8.10;99.90;;;;;;2102450;67;20270;-77
2022/01/14 13:43:12;;;;;;;23.77;7.30;;;8.10;99.90;;;;;;2122596;67;20396;-78
2022/01/14 13:46:12;;;;;;;16.20;7.55;;;8.10;99.90;;;;;;2141251;66;20199;-79
2022/01/14 13:48:52;;;;;;;27.05;7.38;;;8.10;99.90;;;;;;2152653;66;20270;-76
2022/01/14 13:51:41;;;;;;;22.67;7.03;;;8.00;99.90;;;;;;2151191;66;20366;-75
2022/01/14 13:54:26;;;;;;;18.40;8.20;;;8.00;99.90;;;;;;2158252;66;20277;-77
2022/01/14 13:57:17;;;;;;;16.05;6.25;;;8.20;99.90;;;;;;2150931;66;20814;-79
2022/01/14 14:00:11;;;;;;;19.58;6.32;;;8.00;99.90;;;;;;2152133;66;20335;-75
2022/01/14 14:02:53;;;;;;;16.40;7.10;;;8.00;99.90;;;;;;2146323;66;20254;-76
2022/01/14 14:05:39;;;;;;;22.50;7.93;;;8.00;99.90;;;;;;2138485;66;20320;-77
2022/01/14 14:08:36;;;;;;;23.13;7.03;;;8.00;99.90;;;;;;2131816;67;20204;-78
2022/01/14 14:17:25;;;;;;;22.23;7.18;;;8.10;99.90;;;;;;2140018;66;20273;-78
2022/01/14 14:20:10;;;;;;;22.42;7.18;;;8.70;99.90;;;;;;2140638;67;20164;-82
2022/01/14 14:22:55;;;;;;;20.75;7.65;;;8.10;99.90;;;;;;2131207;67;20306;-78
2022/01/14 14:25:40;;;;;;;19.98;7.45;;;8.20;99.90;;;;;;2127309;67;20221;-76
2022/01/14 14:28:29;;;;;;;23.20;8.65;;;8.00;99.90;;;;;;2132600;66;20365;-75
2022/01/14 14:31:12;;;;;;;;;;;7.90;99.90;;;;;;2139561;66;20319;-75
2022/01/14 14:33:56;;;;;;;27.25;7.53;;;7.90;99.90;;;;;;2128193;67;20319;-76
2022/01/14 14:36:41;;;;;;;31.48;8.73;;;8.30;99.90;;;;;;2115835;67;20350;-79
2022/01/14 14:39:27;;;;;;;25.63;8.05;;;7.80;99.90;;;;;;2117574;67;20356;-74
2022/01/14 14:42:12;;;;;;;23.13;8.55;;;7.80;99.90;;;;;;2114695;67;20253;-74
2022/01/14 14:44:54;;;;;;;25.25;8.02;;;7.80;99.90;;;;;;2118817;67;20176;-79
2022/01/14 14:47:35;;;;;;;28.35;8.50;;;7.70;99.90;;;;;;2139831;66;20544;-76
2022/01/14 14:50:20;;;;;;;32.83;9.02;;;7.70;99.90;;;;;;2137845;66;20371;-80
2022/01/14 14:53:03;;;;;;;21.45;8.02;;;7.70;99.90;;;;;;2140407;66;20380;-78